sensor_id;sensor_type;location;lat;lon;timestamp;pressure;altitude;pressure_sealevel;temperature;humidity
31299;BME280;17927;52.350;13.402;2022-10-16T00:01:28;100755.94;;;19.44;63.64
31299;BME280;17927;52.350;13.402;2022-10-16T00:03:54;100755.28;;;19.42;63.34
31299;BME280;17927;52.350;13.402;2022-10-16T00:06:20;100766.88;;;19.44;63.47
31299;BME280;17927;52.350;13.402;2022-10-16T00:08:46;100766.00;;;19.43;63.62
31299;BME280;17927;52.350;13.402;2022-10-16T00:11:18;100763.28;;;19.43;63.62
31299;BME280;17927;52.350;13.402;2022-10-16T00:13:45;100777.63;;;19.45;63.34
31299;BME280;17927;52.350;13.402;2022-10-16T00:16:12;100770.44;;;19.44;63.24
31299;BME280;17927;52.350;13.402;2022-10-16T00:18:38;100763.09;;;19.45;63.42
31299;BME280;17927;52.350;13.402;2022-10-16T00:21:15;100763.94;;;19.45;63.60
31299;BME280;17927;52.350;13.402;2022-10-16T00:23:41;100767.72;;;19.44;63.28
31299;BME280;17927;52.350;13.402;2022-10-16T00:26:10;100773.19;;;19.44;63.61
31299;BME280;17927;52.350;13.402;2022-10-16T00:28:36;100777.84;;;19.44;63.35
31299;BME280;17927;52.350;13.402;2022-10-16T00:31:09;100790.66;;;19.43;63.78
31299;BME280;17927;52.350;13.402;2022-10-16T00:33:35;100785.19;;;19.43;63.72
31299;BME280;17927;52.350;13.402;2022-10-16T00:36:02;100786.06;;;19.44;63.75
31299;BME280;17927;52.350;13.402;2022-10-16T00:38:28;100798.06;;;19.43;63.42
31299;BME280;17927;52.350;13.402;2022-10-16T00:40:53;100797.00;;;19.44;63.87
31299;BME280;17927;52.350;13.402;2022-10-16T00:43:52;100782.44;;;19.43;63.70
31299;BME280;17927;52.350;13.402;2022-10-16T00:48:57;100788.31;;;19.40;63.57
31299;BME280;17927;52.350;13.402;2022-10-16T00:51:31;100790.88;;;19.42;63.67
31299;BME280;17927;52.350;13.402;2022-10-16T00:53:57;100780.75;;;19.42;63.73
31299;BME280;17927;52.350;13.402;2022-10-16T00:56:23;100790.66;;;19.43;63.64
31299;BME280;17927;52.350;13.402;2022-10-16T00:58:49;100798.06;;;19.43;63.53
31299;BME280;17927;52.350;13.402;2022-10-16T01:01:14;100794.44;;;19.42;63.86
31299;BME280;17927;52.350;13.402;2022-10-16T01:03:40;100798.06;;;19.43;64.07
31299;BME280;17927;52.350;13.402;2022-10-16T01:06:16;100790.88;;;19.42;63.79
31299;BME280;17927;52.350;13.402;2022-10-16T01:08:57;100802.66;;;19.42;63.84
31299;BME280;17927;52.350;13.402;2022-10-16T01:11:32;100794.44;;;19.42;63.88
31299;BME280;17927;52.350;13.402;2022-10-16T01:14:04;100782.44;;;19.43;63.53
31299;BME280;17927;52.350;13.402;2022-10-16T01:17:02;100790.47;;;19.45;63.48
31299;BME280;17927;52.350;13.402;2022-10-16T01:19:43;100795.50;;;19.41;63.61
31299;BME280;17927;52.350;13.402;2022-10-16T01:22:09;100795.50;;;19.41;63.83
31299;BME280;17927;52.350;13.402;2022-10-16T01:24:40;100801.84;;;19.42;63.41
31299;BME280;17927;52.350;13.402;2022-10-16T01:27:25;100806.44;;;19.41;63.52
31299;BME280;17927;52.350;13.402;2022-10-16T01:30:10;100814.00;;;19.39;63.38
31299;BME280;17927;52.350;13.402;2022-10-16T01:35:04;100817.19;;;19.36;63.48
31299;BME280;17927;52.350;13.402;2022-10-16T01:37:39;100815.50;;;19.35;63.85
31299;BME280;17927;52.350;13.402;2022-10-16T01:40:11;100819.06;;;19.36;63.42
31299;BME280;17927;52.350;13.402;2022-10-16T01:42:41;100825.78;;;19.33;63.60
31299;BME280;17927;52.350;13.402;2022-10-16T01:45:09;100827.88;;;19.31;63.69
31299;BME280;17927;52.350;13.402;2022-10-16T01:47:39;100824.31;;;19.30;63.58
31299;BME280;17927;52.350;13.402;2022-10-16T01:50:06;100829.56;;;19.32;63.71
31299;BME280;17927;52.350;13.402;2022-10-16T01:52:36;100824.94;;;19.32;63.93
31299;BME280;17927;52.350;13.402;2022-10-16T01:55:03;100834.00;;;19.33;64.00
31299;BME280;17927;52.350;13.402;2022-10-16T01:57:31;100836.75;;;19.33;63.58
31299;BME280;17927;52.350;13.402;2022-10-16T02:00:01;100834.66;;;19.35;64.00
31299;BME280;17927;52.350;13.402;2022-10-16T02:02:28;100842.22;;;19.33;63.92
31299;BME280;17927;52.350;13.402;2022-10-16T02:04:58;100844.75;;;19.35;63.79
31299;BME280;17927;52.350;13.402;2022-10-16T02:07:27;100845.78;;;19.33;63.94
31299;BME280;17927;52.350;13.402;2022-10-16T02:09:52;100853.84;;;19.35;63.75
31299;BME280;17927;52.350;13.402;2022-10-16T02:12:27;100846.44;;;19.36;63.84
31299;BME280;17927;52.350;13.402;2022-10-16T02:14:53;100855.72;;;19.35;63.78
31299;BME280;17927;52.350;13.402;2022-10-16T02:17:18;100859.31;;;19.35;63.74
31299;BME280;17927;52.350;13.402;2022-10-16T02:19:46;100863.09;;;19.34;64.03
31299;BME280;17927;52.350;13.402;2022-10-16T02:22:18;100856.56;;;19.35;63.71
31299;BME280;17927;52.350;13.402;2022-10-16T02:24:58;100859.50;;;19.33;64.07
31299;BME280;17927;52.350;13.402;2022-10-16T02:27:36;100850.44;;;19.33;63.65
31299;BME280;17927;52.350;13.402;2022-10-16T02:30:20;100843.25;;;19.32;63.65
31299;BME280;17927;52.350;13.402;2022-10-16T02:32:48;100838.84;;;19.31;63.96
31299;BME280;17927;52.350;13.402;2022-10-16T02:35:19;100838.84;;;19.31;64.07
31299;BME280;17927;52.350;13.402;2022-10-16T02:37:46;100847.03;;;19.31;63.56
31299;BME280;17927;52.350;13.402;2022-10-16T02:40:12;100849.13;;;19.29;63.68
31299;BME280;17927;52.350;13.402;2022-10-16T02:42:39;100847.25;;;19.29;64.00
31299;BME280;17927;52.350;13.402;2022-10-16T02:45:06;100849.78;;;19.31;63.93
31299;BME280;17927;52.350;13.402;2022-10-16T02:47:33;100853.56;;;19.30;63.73
31299;BME280;17927;52.350;13.402;2022-10-16T02:49:58;100854.63;;;19.29;63.89
31299;BME280;17927;52.350;13.402;2022-10-16T02:52:24;100863.03;;;19.27;63.70
31299;BME280;17927;52.350;13.402;2022-10-16T02:54:49;100860.47;;;19.26;63.51
31299;BME280;17927;52.350;13.402;2022-10-16T02:57:14;100854.34;;;19.24;63.89
31299;BME280;17927;52.350;13.402;2022-10-16T02:59:40;100853.50;;;19.23;63.83
31299;BME280;17927;52.350;13.402;2022-10-16T03:02:05;100874.59;;;19.23;64.06
31299;BME280;17927;52.350;13.402;2022-10-16T03:04:30;100868.47;;;19.21;63.85
31299;BME280;17927;52.350;13.402;2022-10-16T03:06:55;100874.13;;;19.19;63.47
31299;BME280;17927;52.350;13.402;2022-10-16T03:09:21;100877.06;;;19.17;63.83
31299;BME280;17927;52.350;13.402;2022-10-16T03:11:46;100878.31;;;19.15;64.06
31299;BME280;17927;52.350;13.402;2022-10-16T03:14:11;100898.53;;;19.14;63.90
31299;BME280;17927;52.350;13.402;2022-10-16T03:16:36;100896.81;;;19.13;63.75
31299;BME280;17927;52.350;13.402;2022-10-16T03:19:02;100892.19;;;19.13;63.77
31299;BME280;17927;52.350;13.402;2022-10-16T03:21:27;100884.19;;;19.12;64.12
31299;BME280;17927;52.350;13.402;2022-10-16T03:23:52;100875.75;;;19.13;64.13
31299;BME280;17927;52.350;13.402;2022-10-16T03:26:17;100881.22;;;19.13;64.14
31299;BME280;17927;52.350;13.402;2022-10-16T03:28:43;100891.13;;;19.14;64.06
31299;BME280;17927;52.350;13.402;2022-10-16T03:31:08;100901.25;;;19.14;63.72
31299;BME280;17927;52.350;13.402;2022-10-16T03:33:33;100897.88;;;19.12;63.83
31299;BME280;17927;52.350;13.402;2022-10-16T03:35:59;100903.53;;;19.10;63.75
31299;BME280;17927;52.350;13.402;2022-10-16T03:38:24;100912.97;;;19.08;63.86
31299;BME280;17927;52.350;13.402;2022-10-16T03:40:49;100912.53;;;19.04;63.62
31299;BME280;17927;52.350;13.402;2022-10-16T03:43:14;100908.28;;;19.01;64.01
31299;BME280;17927;52.350;13.402;2022-10-16T03:45:40;100908.28;;;19.01;63.72
31299;BME280;17927;52.350;13.402;2022-10-16T03:48:05;100912.91;;;19.01;63.78
31299;BME280;17927;52.350;13.402;2022-10-16T03:50:31;100910.38;;;18.99;63.77
31299;BME280;17927;52.350;13.402;2022-10-16T03:52:56;100910.56;;;18.98;64.07
31299;BME280;17927;52.350;13.402;2022-10-16T03:55:21;100912.66;;;18.96;63.85
31299;BME280;17927;52.350;13.402;2022-10-16T03:57:46;100932.84;;;18.95;63.83
31299;BME280;17927;52.350;13.402;2022-10-16T04:00:12;100940.22;;;18.94;63.77
31299;BME280;17927;52.350;13.402;2022-10-16T04:02:38;100941.22;;;18.93;64.26
31299;BME280;17927;52.350;13.402;2022-10-16T04:05:03;100946.03;;;18.91;64.25
31299;BME280;17927;52.350;13.402;2022-10-16T04:07:29;100960.38;;;18.93;64.45
31299;BME280;17927;52.350;13.402;2022-10-16T04:09:54;100947.94;;;18.91;63.98
31299;BME280;17927;52.350;13.402;2022-10-16T04:12:19;100946.25;;;18.90;64.25
31299;BME280;17927;52.350;13.402;2022-10-16T04:14:45;100946.91;;;18.92;64.49
31299;BME280;17927;52.350;13.402;2022-10-16T04:17:10;100954.06;;;18.93;64.60
31299;BME280;17927;52.350;13.402;2022-10-16T04:19:35;100947.53;;;18.94;64.70
31299;BME280;17927;52.350;13.402;2022-10-16T04:22:00;100942.97;;;18.94;64.14
31299;BME280;17927;52.350;13.402;2022-10-16T04:24:26;100942.06;;;18.94;64.15
31299;BME280;17927;52.350;13.402;2022-10-16T04:26:51;100945.69;;;18.94;64.06
31299;BME280;17927;52.350;13.402;2022-10-16T04:29:16;100945.84;;;18.93;64.22
31299;BME280;17927;52.350;13.402;2022-10-16T04:31:41;100930.28;;;18.93;64.22
31299;BME280;17927;52.350;13.402;2022-10-16T04:34:06;100929.41;;;18.93;63.93
31299;BME280;17927;52.350;13.402;2022-10-16T04:36:32;100915.72;;;18.93;64.43
31299;BME280;17927;52.350;13.402;2022-10-16T04:38:57;100919.34;;;18.93;63.84
31299;BME280;17927;52.350;13.402;2022-10-16T04:41:22;100924.63;;;18.95;63.86
31299;BME280;17927;52.350;13.402;2022-10-16T04:43:48;100928.22;;;18.95;63.71
31299;BME280;17927;52.350;13.402;2022-10-16T04:46:13;100933.50;;;18.97;63.73
31299;BME280;17927;52.350;13.402;2022-10-16T04:48:38;100933.50;;;18.97;64.12
31299;BME280;17927;52.350;13.402;2022-10-16T04:51:03;100917.94;;;18.97;63.65
31299;BME280;17927;52.350;13.402;2022-10-16T04:53:29;100930.59;;;18.98;63.95
31299;BME280;17927;52.350;13.402;2022-10-16T04:55:54;100937.56;;;19.01;63.58
31299;BME280;17927;52.350;13.402;2022-10-16T04:58:19;100932.06;;;19.01;63.96
31299;BME280;17927;52.350;13.402;2022-10-16T05:00:45;100942.38;;;18.99;63.74
31299;BME280;17927;52.350;13.402;2022-10-16T05:03:12;100944.06;;;19.00;63.78
31299;BME280;17927;52.350;13.402;2022-10-16T05:05:42;100951.63;;;18.98;63.79
31299;BME280;17927;52.350;13.402;2022-10-16T05:08:07;100957.47;;;18.95;63.77
31299;BME280;17927;52.350;13.402;2022-10-16T05:10:32;100963.97;;;18.94;63.93
31299;BME280;17927;52.350;13.402;2022-10-16T05:12:58;100967.28;;;18.89;63.57
31299;BME280;17927;52.350;13.402;2022-10-16T05:15:23;100979.28;;;18.88;63.68
31299;BME280;17927;52.350;13.402;2022-10-16T05:17:52;100968.53;;;18.86;64.02
31299;BME280;17927;52.350;13.402;2022-10-16T05:20:17;100984.94;;;18.86;63.98
31299;BME280;17927;52.350;13.402;2022-10-16T05:22:43;100994.19;;;18.85;63.69
31299;BME280;17927;52.350;13.402;2022-10-16T05:25:08;100983.25;;;18.85;63.86
31299;BME280;17927;52.350;13.402;2022-10-16T05:27:33;100976.06;;;18.84;63.72
31299;BME280;17927;52.350;13.402;2022-10-16T05:29:58;100969.78;;;18.84;63.74
31299;BME280;17927;52.350;13.402;2022-10-16T05:32:23;100960.69;;;18.83;63.80
31299;BME280;17927;52.350;13.402;2022-10-16T05:34:50;100970.59;;;18.84;63.91
31299;BME280;17927;52.350;13.402;2022-10-16T05:37:15;100968.53;;;18.86;63.70
31299;BME280;17927;52.350;13.402;2022-10-16T05:39:41;100965.78;;;18.86;63.87
31299;BME280;17927;52.350;13.402;2022-10-16T05:42:06;100970.22;;;18.87;63.98
31299;BME280;17927;52.350;13.402;2022-10-16T05:44:31;100967.28;;;18.89;63.98
31299;BME280;17927;52.350;13.402;2022-10-16T05:46:57;100976.34;;;18.90;63.95
31299;BME280;17927;52.350;13.402;2022-10-16T05:49:22;100985.22;;;18.92;64.10
31299;BME280;17927;52.350;13.402;2022-10-16T05:51:47;100990.69;;;18.92;63.97
31299;BME280;17927;52.350;13.402;2022-10-16T05:54:13;100994.28;;;18.92;63.87
31299;BME280;17927;52.350;13.402;2022-10-16T05:56:38;100997.84;;;18.93;64.26
31299;BME280;17927;52.350;13.402;2022-10-16T05:59:04;100987.41;;;18.96;64.52
31299;BME280;17927;52.350;13.402;2022-10-16T06:01:30;100988.06;;;18.98;64.23
31299;BME280;17927;52.350;13.402;2022-10-16T06:03:56;100976.72;;;19.01;64.01
31299;BME280;17927;52.350;13.402;2022-10-16T06:06:23;100974.19;;;19.00;64.10
31299;BME280;17927;52.350;13.402;2022-10-16T06:08:50;100981.34;;;19.01;63.70
31299;BME280;17927;52.350;13.402;2022-10-16T06:11:18;100983.06;;;19.02;63.85
31299;BME280;17927;52.350;13.402;2022-10-16T06:13:44;100985.78;;;19.02;64.30
31299;BME280;17927;52.350;13.402;2022-10-16T06:16:11;100993.78;;;19.04;64.18
31299;BME280;17927;52.350;13.402;2022-10-16T06:18:36;101000.78;;;19.06;64.44
31299;BME280;17927;52.350;13.402;2022-10-16T06:21:08;100994.91;;;19.09;64.43
31299;BME280;17927;52.350;13.402;2022-10-16T06:23:34;100989.44;;;19.09;64.23
31299;BME280;17927;52.350;13.402;2022-10-16T06:26:11;100990.75;;;19.13;64.22
31299;BME280;17927;52.350;13.402;2022-10-16T06:28:37;101001.31;;;19.16;64.21
31299;BME280;17927;52.350;13.402;2022-10-16T06:31:04;101002.44;;;19.22;64.59
31299;BME280;17927;52.350;13.402;2022-10-16T06:33:30;101011.09;;;19.26;64.71
31299;BME280;17927;52.350;13.402;2022-10-16T06:36:03;100997.88;;;19.29;64.71
31299;BME280;17927;52.350;13.402;2022-10-16T06:38:29;101000.19;;;19.32;64.60
31299;BME280;17927;52.350;13.402;2022-10-16T06:40:54;101004.25;;;19.37;64.24
31299;BME280;17927;52.350;13.402;2022-10-16T06:43:20;101022.84;;;19.41;64.36
31299;BME280;17927;52.350;13.402;2022-10-16T06:45:55;101028.81;;;19.45;64.30
31299;BME280;17927;52.350;13.402;2022-10-16T06:48:21;101036.59;;;19.48;64.20
31299;BME280;17927;52.350;13.402;2022-10-16T06:51:01;101042.56;;;19.52;64.06
31299;BME280;17927;52.350;13.402;2022-10-16T06:53:29;101035.84;;;19.54;64.52
31299;BME280;17927;52.350;13.402;2022-10-16T06:55:55;101047.44;;;19.56;64.29
31299;BME280;17927;52.350;13.402;2022-10-16T06:58:20;101050.84;;;19.58;64.20
31299;BME280;17927;52.350;13.402;2022-10-16T07:00:46;101043.28;;;19.60;64.37
31299;BME280;17927;52.350;13.402;2022-10-16T07:03:11;101053.19;;;19.61;64.44
31299;BME280;17927;52.350;13.402;2022-10-16T07:05:43;101045.59;;;19.63;64.37
31299;BME280;17927;52.350;13.402;2022-10-16T07:08:08;101046.25;;;19.66;64.39
31299;BME280;17927;52.350;13.402;2022-10-16T07:10:34;101053.06;;;19.70;64.03
31299;BME280;17927;52.350;13.402;2022-10-16T07:13:00;101071.84;;;19.73;64.35
31299;BME280;17927;52.350;13.402;2022-10-16T07:15:26;101082.22;;;19.77;64.30
31299;BME280;17927;52.350;13.402;2022-10-16T07:17:51;101087.97;;;19.83;64.67
31299;BME280;17927;52.350;13.402;2022-10-16T07:20:17;101064.44;;;19.88;64.74
31299;BME280;17927;52.350;13.402;2022-10-16T07:22:43;101068.06;;;19.96;64.32
31299;BME280;17927;52.350;13.402;2022-10-16T07:25:08;101068.13;;;20.02;64.71
31299;BME280;17927;52.350;13.402;2022-10-16T07:27:33;101058.06;;;20.10;64.78
31299;BME280;17927;52.350;13.402;2022-10-16T07:29:59;101063.22;;;20.19;64.66
31299;BME280;17927;52.350;13.402;2022-10-16T07:32:24;101075.09;;;20.33;64.90
31299;BME280;17927;52.350;13.402;2022-10-16T07:34:51;101067.81;;;20.47;64.82
31299;BME280;17927;52.350;13.402;2022-10-16T07:37:16;101073.00;;;20.64;64.55
31299;BME280;17927;52.350;13.402;2022-10-16T07:39:41;101079.22;;;20.79;64.72
31299;BME280;17927;52.350;13.402;2022-10-16T07:42:06;101081.59;;;20.89;64.30
31299;BME280;17927;52.350;13.402;2022-10-16T07:44:32;101071.69;;;20.95;63.98
31299;BME280;17927;52.350;13.402;2022-10-16T07:46:57;101078.28;;;21.01;63.33
31299;BME280;17927;52.350;13.402;2022-10-16T07:49:23;101083.34;;;21.04;63.52
31299;BME280;17927;52.350;13.402;2022-10-16T07:51:48;101089.50;;;21.06;63.35
31299;BME280;17927;52.350;13.402;2022-10-16T07:54:13;101086.53;;;21.07;63.40
31299;BME280;17927;52.350;13.402;2022-10-16T07:56:38;101076.41;;;21.08;62.84
31299;BME280;17927;52.350;13.402;2022-10-16T07:59:04;101073.44;;;21.09;62.87
31299;BME280;17927;52.350;13.402;2022-10-16T08:01:29;101081.47;;;21.11;62.77
31299;BME280;17927;52.350;13.402;2022-10-16T08:03:54;101081.47;;;21.11;63.01
31299;BME280;17927;52.350;13.402;2022-10-16T08:06:21;101085.09;;;21.11;62.64
31299;BME280;17927;52.350;13.402;2022-10-16T08:08:47;101091.41;;;21.12;62.54
31299;BME280;17927;52.350;13.402;2022-10-16T08:11:12;101104.09;;;21.13;62.50
31299;BME280;17927;52.350;13.402;2022-10-16T08:13:39;101095.84;;;21.13;62.73
31299;BME280;17927;52.350;13.402;2022-10-16T08:16:04;101104.56;;;21.17;62.43
31299;BME280;17927;52.350;13.402;2022-10-16T08:18:33;101111.53;;;21.19;62.33
31299;BME280;17927;52.350;13.402;2022-10-16T08:20:59;101124.63;;;21.24;62.32
31299;BME280;17927;52.350;13.402;2022-10-16T08:23:25;101115.13;;;21.26;62.56
31299;BME280;17927;52.350;13.402;2022-10-16T08:25:51;101122.78;;;21.31;62.57
31299;BME280;17927;52.350;13.402;2022-10-16T08:28:18;101127.84;;;21.34;62.21
31299;BME280;17927;52.350;13.402;2022-10-16T08:30:43;101119.41;;;21.36;62.00
31299;BME280;17927;52.350;13.402;2022-10-16T08:33:08;101113.69;;;21.37;62.14
31299;BME280;17927;52.350;13.402;2022-10-16T08:35:33;101123.00;;;21.43;62.16
31299;BME280;17927;52.350;13.402;2022-10-16T08:37:59;101120.50;;;21.48;62.32
31299;BME280;17927;52.350;13.402;2022-10-16T08:40:27;101116.72;;;21.56;62.26
31299;BME280;17927;52.350;13.402;2022-10-16T08:45:31;101113.59;;;21.66;62.01
31299;BME280;17927;52.350;13.402;2022-10-16T08:48:14;101114.03;;;21.69;61.44
31299;BME280;17927;52.350;13.402;2022-10-16T08:50:41;101118.06;;;21.73;61.83
31299;BME280;17927;52.350;13.402;2022-10-16T08:53:09;101122.09;;;21.78;61.52
31299;BME280;17927;52.350;13.402;2022-10-16T08:55:45;101134.34;;;21.82;60.87
31299;BME280;17927;52.350;13.402;2022-10-16T08:58:16;101141.34;;;21.84;60.76
31299;BME280;17927;52.350;13.402;2022-10-16T09:00:43;101143.22;;;21.84;60.70
31299;BME280;17927;52.350;13.402;2022-10-16T09:06:16;101138.59;;;21.84;60.33
31299;BME280;17927;52.350;13.402;2022-10-16T09:08:56;101138.16;;;21.81;60.25
31299;BME280;17927;52.350;13.402;2022-10-16T09:25:30;101169.03;;;21.83;60.89
31299;BME280;17927;52.350;13.402;2022-10-16T09:27:56;101162.09;;;21.94;61.10
31299;BME280;17927;52.350;13.402;2022-10-16T09:30:29;101162.31;;;22.05;60.29
31299;BME280;17927;52.350;13.402;2022-10-16T09:32:55;101160.22;;;22.14;60.01
31299;BME280;17927;52.350;13.402;2022-10-16T09:35:31;101153.03;;;22.20;59.37
31299;BME280;17927;52.350;13.402;2022-10-16T09:37:57;101154.31;;;22.24;59.64
31299;BME280;17927;52.350;13.402;2022-10-16T09:40:28;101167.59;;;22.27;59.16
31299;BME280;17927;52.350;13.402;2022-10-16T09:43:02;101179.25;;;22.29;59.13
31299;BME280;17927;52.350;13.402;2022-10-16T09:45:28;101189.22;;;22.30;59.07
31299;BME280;17927;52.350;13.402;2022-10-16T09:47:54;101184.75;;;22.29;58.28
31299;BME280;17927;52.350;13.402;2022-10-16T09:50:25;101179.47;;;22.28;58.06
31299;BME280;17927;52.350;13.402;2022-10-16T09:53:12;101183.06;;;22.28;58.06
31299;BME280;17927;52.350;13.402;2022-10-16T09:55:48;101181.38;;;22.27;58.21
31299;BME280;17927;52.350;13.402;2022-10-16T09:58:14;101177.38;;;22.30;58.60
31299;BME280;17927;52.350;13.402;2022-10-16T10:00:41;101182.88;;;22.30;58.54
31299;BME280;17927;52.350;13.402;2022-10-16T10:03:10;101187.97;;;22.33;58.50
31299;BME280;17927;52.350;13.402;2022-10-16T10:05:39;101202.13;;;22.36;58.21
31299;BME280;17927;52.350;13.402;2022-10-16T10:08:04;101196.66;;;22.43;58.28
31299;BME280;17927;52.350;13.402;2022-10-16T10:10:33;101206.19;;;22.54;58.50
31299;BME280;17927;52.350;13.402;2022-10-16T10:12:59;101205.13;;;22.62;58.36
31299;BME280;17927;52.350;13.402;2022-10-16T10:15:33;101205.53;;;22.72;57.85
31299;BME280;17927;52.350;13.402;2022-10-16T10:18:00;101213.59;;;22.80;57.67
31299;BME280;17927;52.350;13.402;2022-10-16T10:20:29;101207.63;;;22.90;57.91
31299;BME280;17927;52.350;13.402;2022-10-16T10:22:57;101210.59;;;22.95;57.15
31299;BME280;17927;52.350;13.402;2022-10-16T10:25:34;101217.78;;;23.03;56.42
31299;BME280;17927;52.350;13.402;2022-10-16T10:33:24;101212.25;;;23.10;54.24
31299;BME280;17927;52.350;13.402;2022-10-16T10:36:05;101214.81;;;23.11;54.54
31299;BME280;17927;52.350;13.402;2022-10-16T10:38:46;101203.34;;;23.15;55.13
31299;BME280;17927;52.350;13.402;2022-10-16T10:41:47;101210.78;;;23.21;55.04
31299;BME280;17927;52.350;13.402;2022-10-16T10:44:26;101213.94;;;23.24;54.44
31299;BME280;17927;52.350;13.402;2022-10-16T10:47:24;101214.34;;;23.28;54.18
31299;BME280;17927;52.350;13.402;2022-10-16T10:50:07;101220.50;;;23.30;54.17
31299;BME280;17927;52.350;13.402;2022-10-16T10:52:58;101224.75;;;23.33;53.56
31299;BME280;17927;52.350;13.402;2022-10-16T10:55:37;101228.53;;;23.38;54.10
31299;BME280;17927;52.350;13.402;2022-10-16T11:01:14;101226.59;;;23.46;53.99
31299;BME280;17927;52.350;13.402;2022-10-16T11:04:03;101231.69;;;23.49;53.84
31299;BME280;17927;52.350;13.402;2022-10-16T11:06:36;101220.84;;;23.54;53.88
31299;BME280;17927;52.350;13.402;2022-10-16T11:09:15;101229.94;;;23.61;53.91
31299;BME280;17927;52.350;13.402;2022-10-16T11:11:50;101228.19;;;23.67;53.31
31299;BME280;17927;52.350;13.402;2022-10-16T11:14:54;101229.47;;;23.71;53.06
31299;BME280;17927;52.350;13.402;2022-10-16T11:17:28;101241.56;;;23.70;52.48
31299;BME280;17927;52.350;13.402;2022-10-16T11:20:15;101236.25;;;23.75;51.68
31299;BME280;17927;52.350;13.402;2022-10-16T11:22:50;101239.41;;;23.79;52.14
31299;BME280;17927;52.350;13.402;2022-10-16T11:25:25;101236.16;;;23.88;52.22
31299;BME280;17927;52.350;13.402;2022-10-16T11:28:14;101238.06;;;24.01;52.13
31299;BME280;17927;52.350;13.402;2022-10-16T11:30:52;101230.53;;;24.15;51.66
31299;BME280;17927;52.350;13.402;2022-10-16T11:38:46;101226.97;;;24.66;51.81
31299;BME280;17927;52.350;13.402;2022-10-16T11:41:21;101240.47;;;24.81;52.08
31299;BME280;17927;52.350;13.402;2022-10-16T11:46:40;101235.34;;;25.03;50.00
31299;BME280;17927;52.350;13.402;2022-10-16T11:49:17;101237.84;;;25.11;48.89
31299;BME280;17927;52.350;13.402;2022-10-16T11:51:48;101237.31;;;25.21;49.15
31299;BME280;17927;52.350;13.402;2022-10-16T11:57:02;101237.03;;;25.48;47.46
31299;BME280;17927;52.350;13.402;2022-10-16T11:59:47;101237.22;;;25.65;47.33
31299;BME280;17927;52.350;13.402;2022-10-16T12:02:28;101234.28;;;25.78;47.24
31299;BME280;17927;52.350;13.402;2022-10-16T12:05:02;101238.94;;;25.66;49.11
31299;BME280;17927;52.350;13.402;2022-10-16T12:07:35;101245.97;;;25.80;47.91
31299;BME280;17927;52.350;13.402;2022-10-16T12:10:20;101241.56;;;25.91;46.54
31299;BME280;17927;52.350;13.402;2022-10-16T12:12:45;101241.72;;;25.96;46.68
31299;BME280;17927;52.350;13.402;2022-10-16T12:15:18;101246.69;;;26.06;46.06
31299;BME280;17927;52.350;13.402;2022-10-16T12:17:44;101245.13;;;26.10;46.21
31299;BME280;17927;52.350;13.402;2022-10-16T12:22:47;101252.81;;;26.08;44.88
31299;BME280;17927;52.350;13.402;2022-10-16T12:25:39;101241.00;;;26.01;44.46
31299;BME280;17927;52.350;13.402;2022-10-16T12:30:40;101242.91;;;25.89;44.78
31299;BME280;17927;52.350;13.402;2022-10-16T12:33:20;101243.72;;;25.89;45.09
31299;BME280;17927;52.350;13.402;2022-10-16T12:35:46;101255.25;;;25.86;44.88
31299;BME280;17927;52.350;13.402;2022-10-16T12:38:28;101259.09;;;25.85;44.39
31299;BME280;17927;52.350;13.402;2022-10-16T12:40:59;101267.41;;;25.85;44.70
31299;BME280;17927;52.350;13.402;2022-10-16T12:43:41;101266.56;;;25.84;43.97
31299;BME280;17927;52.350;13.402;2022-10-16T12:48:36;101268.50;;;25.84;43.97
31299;BME280;17927;52.350;13.402;2022-10-16T12:51:25;101260.22;;;25.84;43.32
31299;BME280;17927;52.350;13.402;2022-10-16T12:54:16;101263.44;;;25.81;43.87
31299;BME280;17927;52.350;13.402;2022-10-16T12:56:51;101265.34;;;25.80;43.58
31299;BME280;17927;52.350;13.402;2022-10-16T12:59:38;101270.88;;;25.80;43.64
31299;BME280;17927;52.350;13.402;2022-10-16T13:02:39;101263.19;;;25.82;44.33
31299;BME280;17927;52.350;13.402;2022-10-16T13:05:19;101275.75;;;25.97;44.91
31299;BME280;17927;52.350;13.402;2022-10-16T13:07:55;101265.44;;;26.23;44.87
31299;BME280;17927;52.350;13.402;2022-10-16T13:10:30;101264.44;;;26.59;45.56
31299;BME280;17927;52.350;13.402;2022-10-16T13:13:13;101272.34;;;26.98;44.57
31299;BME280;17927;52.350;13.402;2022-10-16T13:18:41;101281.81;;;27.62;43.32
31299;BME280;17927;52.350;13.402;2022-10-16T13:24:09;101291.72;;;27.99;44.71
31299;BME280;17927;52.350;13.402;2022-10-16T13:29:12;101296.53;;;28.61;42.22
31299;BME280;17927;52.350;13.402;2022-10-16T13:31:39;101300.19;;;28.79;41.59
31299;BME280;17927;52.350;13.402;2022-10-16T13:34:05;101309.69;;;28.83;40.53
31299;BME280;17927;52.350;13.402;2022-10-16T13:36:42;101307.34;;;28.75;39.54
31299;BME280;17927;52.350;13.402;2022-10-16T13:39:20;101310.13;;;28.75;39.64
31299;BME280;17927;52.350;13.402;2022-10-16T13:41:58;101299.47;;;28.71;39.93
31299;BME280;17927;52.350;13.402;2022-10-16T13:44:26;101300.34;;;28.72;40.62
31299;BME280;17927;52.350;13.402;2022-10-16T13:47:00;101302.63;;;28.75;40.01
31299;BME280;17927;52.350;13.402;2022-10-16T13:49:26;101303.34;;;28.70;40.12
31299;BME280;17927;52.350;13.402;2022-10-16T13:51:56;101308.75;;;28.60;39.96
31299;BME280;17927;52.350;13.402;2022-10-16T13:54:23;101311.56;;;28.48;39.90